CheckWX is a tool to help pilots better visualize weather data.  It is not intended as a substitute for an official pre-flight weather briefing.

05:02:59 UTC

ETSN TAF
Neuburg Airport
Germany
TAF ETSN 230215Z 2303/2312 VRB02KT 9999 NSW FEW250 PROB30 2303/2309 VRB01KT 3000 BR BKN006 BY ETGL

Mar-23@
03:00 UTC

Mar-23 @ 03:00 UTC

Mar-23@
12:00 UTC

Mar-23 @ 12:00 UTC

TAF ETSN 230215Z 2303/2312 VRB02KT 9999 NSW FEW250
Wind
  • Variable at 2 KTS
Conditions
No significant weather
Cloud Levels
  • Few at 25,000' AGL

Mar-23@
03:00 UTC

Mar-23 @ 03:00 UTC

Mar-23@
09:00 UTC

Mar-23 @ 09:00 UTC

PROB30 2303/2309 VRB01KT 3000 BR BKN006 BY ETGL

Probable - 30% Likelihood

Probable - 30% Likelihood during this time.

Wind
  • Variable at 1 KTS
Conditions
Mist
Cloud Levels
  • Broken at 600' AGL